• Join FlightAware (Why Join?)
  • Login
  • US Flag 
09:40AM EDT


 

Airport Tracker/Info


-or-


 

Live Flight TrackerFlight Track Log ✈ SWA1834 ✈ 04-Aug-2013 ✈ KSNA - KSJC

Flight Track Log - Related Links

Times and Time Zones

All times are in EDT time to prevent confusion due to time zone crossing. See the SWA1834 flight status page for this flight to view local times or setup timezone preferences in your user account.

Time Position Orientation Groundspeed Altitude Reporting Facility
EDT Latitude Longitude Course Direction KTS MPH feet Rate Location/Type
04:56PM 33.6333 -117.9000 203° Southwest 152 175 2,400  Level Southern California TRACON
04:57PM 33.5833 -117.9000 180° South 180 207 3,700 2,280 Climbing Southern California TRACON
04:58PM 33.5003 -117.9514 207° Southwest 258 297 7,700 3,000 Climbing Los Angeles Center
05:00PM 33.4408 -118.0386 231° Southwest 302 348 11,300 3,000 Climbing Los Angeles Center
05:01PM 33.4214 -118.1503 258° West 336 387 14,600 3,060 Climbing Los Angeles Center
05:02PM 33.4008 -118.2667 258° West 350 403 17,700 2,580 Climbing Los Angeles Center
05:03PM 33.3836 -118.3892 260° West 364 419 20,000 1,680 Climbing Los Angeles Center
05:04PM 33.4450 -118.4981 304° West 387 445 21,200 1,920 Climbing Los Angeles Center
05:06PM 33.6372 -118.7078 318° Northwest 432 497 26,000 1,920 Climbing Los Angeles Center
05:07PM 33.7336 -118.7994 322° Northwest 438 504 27,700 960 Climbing Los Angeles Center
05:08PM 33.8483 -118.9081 322° Northwest 435 501 28,300 1,020 Climbing Los Angeles Center
05:09PM 33.9267 -118.9836 321° Northwest 445 512 29,900 1,680 Climbing Los Angeles Center
05:10PM 34.0483 -119.1000 322° Northwest 461 531 31,800 1,200 Climbing Los Angeles Center
05:11PM 34.1511 -119.1986 322° Northwest 470 541 32,400 1,020 Climbing Los Angeles Center
05:12PM 34.2744 -119.3181 321° Northwest 473 544 34,000 1,260 Climbing Los Angeles Center
05:13PM 34.3772 -119.4178 321° Northwest 474 545 35,100 1,380 Climbing Los Angeles Center
05:14PM 34.4756 -119.5136 321° Northwest 457 526 36,900 1,440 Climbing Los Angeles Center
05:15PM 34.5747 -119.6106 321° Northwest 457 526 38,100 1,020 Climbing Los Angeles Center
05:16PM 34.6736 -119.7031 322° Northwest 462 532 39,100 900 Climbing Los Angeles Center
05:17PM 34.7947 -119.8217 321° Northwest 467 537 40,000 360 Climbing Los Angeles Center
05:19PM 34.9161 -119.9414 321° Northwest 468 539 40,000  Level Los Angeles Center
05:20PM 35.0175 -120.0403 321° Northwest 468 539 40,000  Level Los Angeles Center
05:21PM 35.1261 -120.1489 321° Northwest 466 536 40,000  Level Los Angeles Center
05:22PM 35.2264 -120.2475 321° Northwest 466 536 40,000  Level Los Angeles Center
05:23PM 35.3272 -120.3464 321° Northwest 468 539 40,000  Level Los Angeles Center
05:24PM 35.4261 -120.4469 320° Northwest 465 535 40,000  Level Los Angeles Center
05:25PM 35.5250 -120.5481 320° Northwest 464 534 40,000  Level Los Angeles Center
05:26PM 35.6442 -120.6678 321° Northwest 462 532 40,000 -120 Level Los Angeles Center
05:27PM 35.7061 -120.7314 320° Northwest 462 532 39,800 -1,140 Descending Oakland Center
05:28PM 35.8053 -120.8314 321° Northwest 462 532 38,100 -2,100 Descending Oakland Center
05:29PM 35.9036 -120.9311 321° Northwest 459 528 35,600 -2,760 Descending Oakland Center
05:30PM 36.0050 -121.0297 322° Northwest 470 541 32,500 -3,240 Descending Oakland Center
05:31PM 36.1136 -121.1225 325° Northwest 475 547 29,000 -3,360 Descending Oakland Center
05:32PM 36.2414 -121.2333 325° Northwest 468 539 25,600 -3,060 Descending Oakland Center
05:33PM 36.3439 -121.3225 325° Northwest 453 521 22,800 -2,880 Descending Oakland Center
05:34PM 36.4444 -121.4092 325° Northwest 445 512 19,800 -2,940 Descending Oakland Center
05:35PM 36.5489 -121.4850 330° Northwest 437 503 16,800 -2,820 Descending Oakland Center
05:36PM 36.6669 -121.5019 353° North 426 490 14,000 -2,700 Descending Oakland Center
05:37PM 36.7783 -121.5231 351° North 407 468 11,300 -1,860 Descending Oakland Center
05:38PM 36.8975 -121.5417 353° North 377 434 10,200 -1,020 Descending Oakland Center
05:39PM 36.9800 -121.5597 350° North 320 368 9,300 -1,380 Descending Oakland Center
05:40PM 37.0497 -121.6181 326° Northwest 305 351 7,400 -1,620 Descending Oakland Center
05:41PM 37.1161 -121.6728 327° Northwest 295 339 6,000 -1,440 Descending Oakland Center
05:42PM 37.1833 -121.7333 324° Northwest 246 283 4,300 -1,380 Descending Northern Cal TRACON
05:43PM 37.2333 -121.8000 313° West 224 258 3,100 -1,080 Descending Northern Cal TRACON
05:44PM 37.2697 -121.8292 327° Northwest 232 267 2,300 -1,080 Descending Oakland Center
05:45PM 37.3167 -121.8819 318° Northwest 205 236 1,100 -960 Descending Oakland Center
05:46PM 37.3444 -121.9114 320° Northwest 160 184 400 -720 Descending Oakland Center
05:48PM 37.3500 -121.9167 North  Level FlightAware Approximate
05:55PM 37.3627 -121.9291 North  Level Estimated